sensor_id;sensor_type;location;lat;lon;timestamp;P1;durP1;ratioP1;P2;durP2;ratioP2
11962;SDS011;62678;52.130;5.584;2023-03-01T00:01:08;16.52;;;11.55;;
11962;SDS011;62678;52.130;5.584;2023-03-01T00:03:36;16.70;;;11.93;;
11962;SDS011;62678;52.130;5.584;2023-03-01T00:06:05;18.20;;;11.50;;
11962;SDS011;62678;52.130;5.584;2023-03-01T00:08:32;16.73;;;11.35;;
11962;SDS011;62678;52.130;5.584;2023-03-01T00:11:00;19.08;;;11.73;;
11962;SDS011;62678;52.130;5.584;2023-03-01T00:13:28;16.27;;;11.32;;
11962;SDS011;62678;52.130;5.584;2023-03-01T00:15:55;16.58;;;11.55;;
11962;SDS011;62678;52.130;5.584;2023-03-01T00:18:22;16.15;;;11.27;;
11962;SDS011;62678;52.130;5.584;2023-03-01T00:20:49;15.70;;;10.75;;
11962;SDS011;62678;52.130;5.584;2023-03-01T00:23:21;17.60;;;11.38;;
11962;SDS011;62678;52.130;5.584;2023-03-01T00:25:49;15.38;;;10.75;;
11962;SDS011;62678;52.130;5.584;2023-03-01T00:28:16;15.70;;;10.10;;
11962;SDS011;62678;52.130;5.584;2023-03-01T00:30:43;15.35;;;10.07;;
11962;SDS011;62678;52.130;5.584;2023-03-01T00:33:10;13.48;;;9.73;;
11962;SDS011;62678;52.130;5.584;2023-03-01T00:35:37;12.73;;;9.25;;
11962;SDS011;62678;52.130;5.584;2023-03-01T00:38:04;13.50;;;9.23;;
11962;SDS011;62678;52.130;5.584;2023-03-01T00:40:33;12.15;;;9.10;;
11962;SDS011;62678;52.130;5.584;2023-03-01T00:43:01;14.45;;;9.07;;
11962;SDS011;62678;52.130;5.584;2023-03-01T00:45:28;12.40;;;8.65;;
11962;SDS011;62678;52.130;5.584;2023-03-01T00:47:56;15.77;;;8.48;;
11962;SDS011;62678;52.130;5.584;2023-03-01T00:50:23;13.52;;;8.20;;
11962;SDS011;62678;52.130;5.584;2023-03-01T00:52:51;16.58;;;8.68;;
11962;SDS011;62678;52.130;5.584;2023-03-01T00:55:19;13.35;;;8.38;;
11962;SDS011;62678;52.130;5.584;2023-03-01T00:57:47;12.63;;;8.27;;
11962;SDS011;62678;52.130;5.584;2023-03-01T01:00:14;13.07;;;8.25;;
11962;SDS011;62678;52.130;5.584;2023-03-01T01:02:42;12.90;;;8.50;;
11962;SDS011;62678;52.130;5.584;2023-03-01T01:05:08;11.30;;;7.85;;
11962;SDS011;62678;52.130;5.584;2023-03-01T01:07:36;13.07;;;8.32;;
11962;SDS011;62678;52.130;5.584;2023-03-01T01:10:03;14.68;;;8.63;;
11962;SDS011;62678;52.130;5.584;2023-03-01T01:12:30;12.93;;;8.02;;
11962;SDS011;62678;52.130;5.584;2023-03-01T01:14:59;11.32;;;8.60;;
11962;SDS011;62678;52.130;5.584;2023-03-01T01:17:26;11.95;;;8.38;;
11962;SDS011;62678;52.130;5.584;2023-03-01T01:19:53;12.23;;;8.43;;
11962;SDS011;62678;52.130;5.584;2023-03-01T01:22:20;12.60;;;8.30;;
11962;SDS011;62678;52.130;5.584;2023-03-01T01:24:46;11.88;;;8.45;;
11962;SDS011;62678;52.130;5.584;2023-03-01T01:27:13;11.27;;;8.25;;
11962;SDS011;62678;52.130;5.584;2023-03-01T01:29:40;14.68;;;9.43;;
11962;SDS011;62678;52.130;5.584;2023-03-01T01:32:09;12.27;;;8.25;;
11962;SDS011;62678;52.130;5.584;2023-03-01T01:34:36;13.85;;;8.30;;
11962;SDS011;62678;52.130;5.584;2023-03-01T01:37:02;11.43;;;8.30;;
11962;SDS011;62678;52.130;5.584;2023-03-01T01:39:32;11.27;;;8.50;;
11962;SDS011;62678;52.130;5.584;2023-03-01T01:42:02;11.50;;;8.60;;
11962;SDS011;62678;52.130;5.584;2023-03-01T01:44:29;13.48;;;8.88;;
11962;SDS011;62678;52.130;5.584;2023-03-01T01:47:00;12.93;;;9.18;;
11962;SDS011;62678;52.130;5.584;2023-03-01T01:49:33;13.15;;;8.45;;
11962;SDS011;62678;52.130;5.584;2023-03-01T01:52:07;15.23;;;9.05;;
11962;SDS011;62678;52.130;5.584;2023-03-01T01:54:38;15.63;;;9.23;;
11962;SDS011;62678;52.130;5.584;2023-03-01T01:57:09;13.63;;;8.55;;
11962;SDS011;62678;52.130;5.584;2023-03-01T01:59:40;13.63;;;8.98;;
11962;SDS011;62678;52.130;5.584;2023-03-01T02:02:13;15.07;;;9.25;;
11962;SDS011;62678;52.130;5.584;2023-03-01T02:04:41;12.73;;;8.40;;
11962;SDS011;62678;52.130;5.584;2023-03-01T02:07:09;12.48;;;9.23;;
11962;SDS011;62678;52.130;5.584;2023-03-01T02:09:42;13.25;;;8.68;;
11962;SDS011;62678;52.130;5.584;2023-03-01T02:12:12;12.93;;;9.25;;
11962;SDS011;62678;52.130;5.584;2023-03-01T02:14:40;13.40;;;9.18;;
11962;SDS011;62678;52.130;5.584;2023-03-01T02:17:07;12.82;;;8.95;;
11962;SDS011;62678;52.130;5.584;2023-03-01T02:19:38;15.65;;;8.85;;
11962;SDS011;62678;52.130;5.584;2023-03-01T02:22:20;12.48;;;8.63;;
11962;SDS011;62678;52.130;5.584;2023-03-01T02:24:53;14.35;;;10.02;;
11962;SDS011;62678;52.130;5.584;2023-03-01T02:27:33;12.77;;;10.27;;
11962;SDS011;62678;52.130;5.584;2023-03-01T02:30:08;14.05;;;10.13;;
11962;SDS011;62678;52.130;5.584;2023-03-01T02:32:37;15.43;;;10.25;;
11962;SDS011;62678;52.130;5.584;2023-03-01T02:35:06;15.88;;;11.27;;
11962;SDS011;62678;52.130;5.584;2023-03-01T02:37:36;14.77;;;10.35;;
11962;SDS011;62678;52.130;5.584;2023-03-01T02:40:05;15.27;;;10.65;;
11962;SDS011;62678;52.130;5.584;2023-03-01T02:42:40;17.63;;;12.25;;
11962;SDS011;62678;52.130;5.584;2023-03-01T02:45:14;21.55;;;15.18;;
11962;SDS011;62678;52.130;5.584;2023-03-01T02:47:41;22.48;;;15.32;;
11962;SDS011;62678;52.130;5.584;2023-03-01T02:50:14;23.15;;;14.75;;
11962;SDS011;62678;52.130;5.584;2023-03-01T02:52:52;23.27;;;13.70;;
11962;SDS011;62678;52.130;5.584;2023-03-01T02:55:23;24.50;;;13.23;;
11962;SDS011;62678;52.130;5.584;2023-03-01T02:57:53;17.42;;;12.00;;
11962;SDS011;62678;52.130;5.584;2023-03-01T03:00:24;18.92;;;11.90;;
11962;SDS011;62678;52.130;5.584;2023-03-01T03:02:54;20.65;;;12.60;;
11962;SDS011;62678;52.130;5.584;2023-03-01T03:05:22;18.73;;;11.98;;
11962;SDS011;62678;52.130;5.584;2023-03-01T03:07:51;18.38;;;11.95;;
11962;SDS011;62678;52.130;5.584;2023-03-01T03:10:19;15.25;;;11.32;;
11962;SDS011;62678;52.130;5.584;2023-03-01T03:12:48;16.55;;;11.82;;
11962;SDS011;62678;52.130;5.584;2023-03-01T03:15:16;17.38;;;11.30;;
11962;SDS011;62678;52.130;5.584;2023-03-01T03:17:44;20.38;;;12.05;;
11962;SDS011;62678;52.130;5.584;2023-03-01T03:20:13;16.83;;;11.60;;
11962;SDS011;62678;52.130;5.584;2023-03-01T03:22:44;15.98;;;11.80;;
11962;SDS011;62678;52.130;5.584;2023-03-01T03:25:11;19.35;;;12.15;;
11962;SDS011;62678;52.130;5.584;2023-03-01T03:27:38;19.30;;;11.85;;
11962;SDS011;62678;52.130;5.584;2023-03-01T03:30:07;16.17;;;11.70;;
11962;SDS011;62678;52.130;5.584;2023-03-01T03:32:37;19.33;;;12.40;;
11962;SDS011;62678;52.130;5.584;2023-03-01T03:35:06;22.90;;;12.38;;
11962;SDS011;62678;52.130;5.584;2023-03-01T03:37:35;16.35;;;12.32;;
11962;SDS011;62678;52.130;5.584;2023-03-01T03:40:20;20.00;;;13.68;;
11962;SDS011;62678;52.130;5.584;2023-03-01T03:42:47;19.60;;;13.15;;
11962;SDS011;62678;52.130;5.584;2023-03-01T03:45:14;18.35;;;12.73;;
11962;SDS011;62678;52.130;5.584;2023-03-01T03:47:41;21.73;;;13.68;;
11962;SDS011;62678;52.130;5.584;2023-03-01T03:50:11;18.65;;;12.70;;
11962;SDS011;62678;52.130;5.584;2023-03-01T03:52:39;17.63;;;12.02;;
11962;SDS011;62678;52.130;5.584;2023-03-01T03:55:07;19.13;;;12.65;;
11962;SDS011;62678;52.130;5.584;2023-03-01T03:57:35;21.35;;;12.68;;
11962;SDS011;62678;52.130;5.584;2023-03-01T04:00:02;23.45;;;12.80;;
11962;SDS011;62678;52.130;5.584;2023-03-01T04:02:30;18.77;;;12.35;;
11962;SDS011;62678;52.130;5.584;2023-03-01T04:04:57;20.23;;;13.13;;
11962;SDS011;62678;52.130;5.584;2023-03-01T04:07:25;25.80;;;13.38;;
11962;SDS011;62678;52.130;5.584;2023-03-01T04:09:52;20.73;;;13.32;;
11962;SDS011;62678;52.130;5.584;2023-03-01T04:12:19;20.33;;;13.52;;
11962;SDS011;62678;52.130;5.584;2023-03-01T04:14:48;19.45;;;13.63;;
11962;SDS011;62678;52.130;5.584;2023-03-01T04:17:15;20.15;;;13.20;;
11962;SDS011;62678;52.130;5.584;2023-03-01T04:19:41;22.42;;;14.23;;
11962;SDS011;62678;52.130;5.584;2023-03-01T04:22:09;21.23;;;13.18;;
11962;SDS011;62678;52.130;5.584;2023-03-01T04:24:37;20.58;;;13.95;;
11962;SDS011;62678;52.130;5.584;2023-03-01T04:27:04;20.15;;;13.65;;
11962;SDS011;62678;52.130;5.584;2023-03-01T04:29:31;19.30;;;13.35;;
11962;SDS011;62678;52.130;5.584;2023-03-01T04:31:58;17.70;;;13.30;;
11962;SDS011;62678;52.130;5.584;2023-03-01T04:34:25;22.00;;;14.05;;
11962;SDS011;62678;52.130;5.584;2023-03-01T04:36:52;22.83;;;12.75;;
11962;SDS011;62678;52.130;5.584;2023-03-01T04:39:19;20.52;;;12.68;;
11962;SDS011;62678;52.130;5.584;2023-03-01T04:41:47;19.63;;;12.73;;
11962;SDS011;62678;52.130;5.584;2023-03-01T04:44:14;19.58;;;12.60;;
11962;SDS011;62678;52.130;5.584;2023-03-01T04:46:41;20.67;;;12.52;;
11962;SDS011;62678;52.130;5.584;2023-03-01T04:49:07;19.17;;;13.10;;
11962;SDS011;62678;52.130;5.584;2023-03-01T04:51:34;20.67;;;13.38;;
11962;SDS011;62678;52.130;5.584;2023-03-01T04:54:01;20.10;;;13.77;;
11962;SDS011;62678;52.130;5.584;2023-03-01T04:56:30;19.40;;;13.25;;
11962;SDS011;62678;52.130;5.584;2023-03-01T04:58:58;24.67;;;12.63;;
11962;SDS011;62678;52.130;5.584;2023-03-01T05:01:25;20.60;;;12.98;;
11962;SDS011;62678;52.130;5.584;2023-03-01T05:03:52;18.73;;;12.68;;
11962;SDS011;62678;52.130;5.584;2023-03-01T05:06:19;19.90;;;12.90;;
11962;SDS011;62678;52.130;5.584;2023-03-01T05:08:47;17.73;;;12.60;;
11962;SDS011;62678;52.130;5.584;2023-03-01T05:11:13;18.60;;;13.05;;
11962;SDS011;62678;52.130;5.584;2023-03-01T05:13:41;18.75;;;12.93;;
11962;SDS011;62678;52.130;5.584;2023-03-01T05:16:10;23.10;;;13.00;;
11962;SDS011;62678;52.130;5.584;2023-03-01T05:18:37;19.63;;;12.85;;
11962;SDS011;62678;52.130;5.584;2023-03-01T05:21:05;18.52;;;12.95;;
11962;SDS011;62678;52.130;5.584;2023-03-01T05:23:34;22.67;;;13.85;;
11962;SDS011;62678;52.130;5.584;2023-03-01T05:26:01;21.35;;;14.68;;
11962;SDS011;62678;52.130;5.584;2023-03-01T05:28:29;20.73;;;12.93;;
11962;SDS011;62678;52.130;5.584;2023-03-01T05:30:57;19.60;;;13.35;;
11962;SDS011;62678;52.130;5.584;2023-03-01T05:33:26;20.13;;;13.57;;
11962;SDS011;62678;52.130;5.584;2023-03-01T05:35:53;23.42;;;13.68;;
11962;SDS011;62678;52.130;5.584;2023-03-01T05:38:20;20.85;;;13.48;;
11962;SDS011;62678;52.130;5.584;2023-03-01T05:40:47;20.90;;;13.82;;
11962;SDS011;62678;52.130;5.584;2023-03-01T05:43:15;18.92;;;13.27;;
11962;SDS011;62678;52.130;5.584;2023-03-01T05:45:43;23.88;;;13.38;;
11962;SDS011;62678;52.130;5.584;2023-03-01T05:48:10;21.35;;;13.02;;
11962;SDS011;62678;52.130;5.584;2023-03-01T05:50:40;22.42;;;13.20;;
11962;SDS011;62678;52.130;5.584;2023-03-01T05:53:09;18.95;;;13.00;;
11962;SDS011;62678;52.130;5.584;2023-03-01T05:55:37;22.85;;;13.77;;
11962;SDS011;62678;52.130;5.584;2023-03-01T05:58:06;20.30;;;13.70;;
11962;SDS011;62678;52.130;5.584;2023-03-01T06:00:35;23.48;;;13.95;;
11962;SDS011;62678;52.130;5.584;2023-03-01T06:03:02;20.00;;;14.43;;
11962;SDS011;62678;52.130;5.584;2023-03-01T06:05:29;18.27;;;13.20;;
11962;SDS011;62678;52.130;5.584;2023-03-01T06:07:59;25.58;;;14.73;;
11962;SDS011;62678;52.130;5.584;2023-03-01T06:10:27;21.80;;;14.77;;
11962;SDS011;62678;52.130;5.584;2023-03-01T06:12:54;23.00;;;15.48;;
11962;SDS011;62678;52.130;5.584;2023-03-01T06:15:21;24.70;;;15.90;;
11962;SDS011;62678;52.130;5.584;2023-03-01T06:17:49;27.23;;;16.30;;
11962;SDS011;62678;52.130;5.584;2023-03-01T06:20:17;30.05;;;16.42;;
11962;SDS011;62678;52.130;5.584;2023-03-01T06:22:45;28.95;;;15.75;;
11962;SDS011;62678;52.130;5.584;2023-03-01T06:25:16;27.27;;;15.57;;
11962;SDS011;62678;52.130;5.584;2023-03-01T06:27:44;24.17;;;15.73;;
11962;SDS011;62678;52.130;5.584;2023-03-01T06:30:12;29.25;;;16.17;;
11962;SDS011;62678;52.130;5.584;2023-03-01T06:32:41;32.50;;;16.88;;
11962;SDS011;62678;52.130;5.584;2023-03-01T06:35:08;32.25;;;17.42;;
11962;SDS011;62678;52.130;5.584;2023-03-01T06:37:36;34.28;;;18.75;;
11962;SDS011;62678;52.130;5.584;2023-03-01T06:40:03;29.30;;;18.92;;
11962;SDS011;62678;52.130;5.584;2023-03-01T06:42:34;28.48;;;17.38;;
11962;SDS011;62678;52.130;5.584;2023-03-01T06:45:01;35.90;;;19.35;;
11962;SDS011;62678;52.130;5.584;2023-03-01T06:47:28;31.90;;;19.85;;
11962;SDS011;62678;52.130;5.584;2023-03-01T06:49:55;33.67;;;19.67;;
11962;SDS011;62678;52.130;5.584;2023-03-01T06:52:22;34.22;;;20.38;;
11962;SDS011;62678;52.130;5.584;2023-03-01T06:54:49;33.65;;;21.08;;
11962;SDS011;62678;52.130;5.584;2023-03-01T06:57:16;34.40;;;21.00;;
11962;SDS011;62678;52.130;5.584;2023-03-01T06:59:44;34.92;;;20.73;;
11962;SDS011;62678;52.130;5.584;2023-03-01T07:02:12;37.25;;;21.33;;
11962;SDS011;62678;52.130;5.584;2023-03-01T07:04:40;32.22;;;20.85;;
11962;SDS011;62678;52.130;5.584;2023-03-01T07:07:07;33.92;;;20.85;;
11962;SDS011;62678;52.130;5.584;2023-03-01T07:09:34;34.90;;;21.45;;
11962;SDS011;62678;52.130;5.584;2023-03-01T07:12:01;35.65;;;21.67;;
11962;SDS011;62678;52.130;5.584;2023-03-01T07:14:28;41.08;;;23.33;;
11962;SDS011;62678;52.130;5.584;2023-03-01T07:16:56;36.92;;;22.73;;
11962;SDS011;62678;52.130;5.584;2023-03-01T07:19:23;41.17;;;23.63;;
11962;SDS011;62678;52.130;5.584;2023-03-01T07:21:50;36.80;;;22.45;;
11962;SDS011;62678;52.130;5.584;2023-03-01T07:24:17;36.13;;;21.23;;
11962;SDS011;62678;52.130;5.584;2023-03-01T07:26:47;29.95;;;18.98;;
11962;SDS011;62678;52.130;5.584;2023-03-01T07:29:14;32.80;;;19.80;;
11962;SDS011;62678;52.130;5.584;2023-03-01T07:31:41;29.63;;;18.23;;
11962;SDS011;62678;52.130;5.584;2023-03-01T07:34:09;28.63;;;16.88;;
11962;SDS011;62678;52.130;5.584;2023-03-01T07:36:36;31.67;;;17.85;;
11962;SDS011;62678;52.130;5.584;2023-03-01T07:39:04;26.08;;;15.82;;
11962;SDS011;62678;52.130;5.584;2023-03-01T07:41:31;33.20;;;15.98;;
11962;SDS011;62678;52.130;5.584;2023-03-01T07:43:58;30.40;;;16.98;;
11962;SDS011;62678;52.130;5.584;2023-03-01T07:46:25;31.45;;;18.20;;
11962;SDS011;62678;52.130;5.584;2023-03-01T07:48:52;28.20;;;17.35;;
11962;SDS011;62678;52.130;5.584;2023-03-01T07:51:20;36.35;;;18.15;;
11962;SDS011;62678;52.130;5.584;2023-03-01T07:53:47;26.23;;;17.80;;
11962;SDS011;62678;52.130;5.584;2023-03-01T07:56:14;26.48;;;17.10;;
11962;SDS011;62678;52.130;5.584;2023-03-01T07:58:42;25.45;;;15.75;;
11962;SDS011;62678;52.130;5.584;2023-03-01T08:01:11;20.15;;;13.30;;
11962;SDS011;62678;52.130;5.584;2023-03-01T08:03:39;18.80;;;12.75;;
11962;SDS011;62678;52.130;5.584;2023-03-01T08:06:07;19.75;;;12.70;;
11962;SDS011;62678;52.130;5.584;2023-03-01T08:08:36;19.83;;;11.85;;
11962;SDS011;62678;52.130;5.584;2023-03-01T08:11:04;23.05;;;12.52;;
11962;SDS011;62678;52.130;5.584;2023-03-01T08:13:32;19.60;;;12.15;;
11962;SDS011;62678;52.130;5.584;2023-03-01T08:16:00;19.30;;;12.35;;
11962;SDS011;62678;52.130;5.584;2023-03-01T08:18:29;21.67;;;12.20;;
11962;SDS011;62678;52.130;5.584;2023-03-01T08:20:56;16.67;;;11.68;;
11962;SDS011;62678;52.130;5.584;2023-03-01T08:23:27;24.80;;;12.48;;
11962;SDS011;62678;52.130;5.584;2023-03-01T08:25:56;22.23;;;12.15;;
11962;SDS011;62678;52.130;5.584;2023-03-01T08:28:30;19.92;;;11.80;;
11962;SDS011;62678;52.130;5.584;2023-03-01T08:30:56;22.27;;;12.90;;
11962;SDS011;62678;52.130;5.584;2023-03-01T08:33:23;24.35;;;13.75;;
11962;SDS011;62678;52.130;5.584;2023-03-01T08:35:50;23.10;;;13.85;;
11962;SDS011;62678;52.130;5.584;2023-03-01T08:38:17;18.15;;;11.85;;
11962;SDS011;62678;52.130;5.584;2023-03-01T08:40:44;18.48;;;11.27;;
11962;SDS011;62678;52.130;5.584;2023-03-01T08:43:12;16.05;;;10.70;;
11962;SDS011;62678;52.130;5.584;2023-03-01T08:45:39;14.85;;;9.40;;
11962;SDS011;62678;52.130;5.584;2023-03-01T08:48:05;14.10;;;10.07;;
11962;SDS011;62678;52.130;5.584;2023-03-01T08:50:32;17.42;;;9.75;;
11962;SDS011;62678;52.130;5.584;2023-03-01T08:52:59;15.82;;;9.75;;
11962;SDS011;62678;52.130;5.584;2023-03-01T08:55:26;13.82;;;9.40;;
11962;SDS011;62678;52.130;5.584;2023-03-01T08:57:53;11.75;;;8.90;;
11962;SDS011;62678;52.130;5.584;2023-03-01T09:00:25;14.43;;;9.60;;
11962;SDS011;62678;52.130;5.584;2023-03-01T09:02:52;15.88;;;9.45;;
11962;SDS011;62678;52.130;5.584;2023-03-01T09:05:22;15.05;;;9.73;;
11962;SDS011;62678;52.130;5.584;2023-03-01T09:07:49;13.88;;;9.48;;
11962;SDS011;62678;52.130;5.584;2023-03-01T09:10:16;15.93;;;9.82;;
11962;SDS011;62678;52.130;5.584;2023-03-01T09:12:43;13.52;;;9.05;;
11962;SDS011;62678;52.130;5.584;2023-03-01T09:15:10;14.63;;;8.95;;
11962;SDS011;62678;52.130;5.584;2023-03-01T09:17:38;14.00;;;9.32;;
11962;SDS011;62678;52.130;5.584;2023-03-01T09:20:05;13.57;;;8.88;;
11962;SDS011;62678;52.130;5.584;2023-03-01T09:22:33;13.98;;;9.07;;
11962;SDS011;62678;52.130;5.584;2023-03-01T09:25:00;12.40;;;9.05;;
11962;SDS011;62678;52.130;5.584;2023-03-01T09:27:27;12.38;;;7.43;;
11962;SDS011;62678;52.130;5.584;2023-03-01T09:29:54;11.45;;;7.35;;
11962;SDS011;62678;52.130;5.584;2023-03-01T09:32:21;9.18;;;5.97;;
11962;SDS011;62678;52.130;5.584;2023-03-01T09:34:49;8.05;;;5.47;;
11962;SDS011;62678;52.130;5.584;2023-03-01T09:37:29;11.52;;;6.32;;
11962;SDS011;62678;52.130;5.584;2023-03-01T09:39:57;8.57;;;5.55;;
11962;SDS011;62678;52.130;5.584;2023-03-01T09:42:24;9.73;;;6.22;;
11962;SDS011;62678;52.130;5.584;2023-03-01T09:44:53;8.85;;;5.70;;
11962;SDS011;62678;52.130;5.584;2023-03-01T09:47:24;7.40;;;5.65;;
11962;SDS011;62678;52.130;5.584;2023-03-01T09:49:57;12.02;;;5.50;;
11962;SDS011;62678;52.130;5.584;2023-03-01T09:52:29;9.27;;;5.53;;
11962;SDS011;62678;52.130;5.584;2023-03-01T09:55:00;9.10;;;5.95;;
11962;SDS011;62678;52.130;5.584;2023-03-01T09:57:38;9.27;;;5.50;;
11962;SDS011;62678;52.130;5.584;2023-03-01T10:00:12;7.57;;;5.38;;
11962;SDS011;62678;52.130;5.584;2023-03-01T10:02:48;7.32;;;4.82;;
11962;SDS011;62678;52.130;5.584;2023-03-01T10:05:27;6.90;;;4.03;;
11962;SDS011;62678;52.130;5.584;2023-03-01T10:08:12;5.40;;;4.22;;
11962;SDS011;62678;52.130;5.584;2023-03-01T10:10:56;6.70;;;4.05;;
11962;SDS011;62678;52.130;5.584;2023-03-01T10:13:24;8.50;;;4.53;;
11962;SDS011;62678;52.130;5.584;2023-03-01T10:15:55;5.22;;;3.83;;
11962;SDS011;62678;52.130;5.584;2023-03-01T10:18:27;6.25;;;4.43;;
11962;SDS011;62678;52.130;5.584;2023-03-01T10:20:59;6.13;;;4.47;;
11962;SDS011;62678;52.130;5.584;2023-03-01T10:23:29;6.30;;;3.92;;
11962;SDS011;62678;52.130;5.584;2023-03-01T10:26:09;6.93;;;4.18;;
11962;SDS011;62678;52.130;5.584;2023-03-01T10:28:49;5.72;;;3.95;;
11962;SDS011;62678;52.130;5.584;2023-03-01T10:31:24;4.97;;;3.60;;
11962;SDS011;62678;52.130;5.584;2023-03-01T10:33:54;8.55;;;3.95;;
11962;SDS011;62678;52.130;5.584;2023-03-01T10:36:23;6.03;;;3.55;;
11962;SDS011;62678;52.130;5.584;2023-03-01T10:38:52;4.93;;;3.63;;
11962;SDS011;62678;52.130;5.584;2023-03-01T10:41:20;5.45;;;3.80;;
11962;SDS011;62678;52.130;5.584;2023-03-01T10:43:49;7.03;;;3.95;;
11962;SDS011;62678;52.130;5.584;2023-03-01T10:46:25;5.38;;;3.20;;
11962;SDS011;62678;52.130;5.584;2023-03-01T10:49:05;4.97;;;3.50;;
11962;SDS011;62678;52.130;5.584;2023-03-01T10:51:35;10.43;;;4.05;;
11962;SDS011;62678;52.130;5.584;2023-03-01T10:54:03;8.88;;;3.60;;
11962;SDS011;62678;52.130;5.584;2023-03-01T10:56:41;7.80;;;3.50;;
11962;SDS011;62678;52.130;5.584;2023-03-01T10:59:19;4.80;;;3.33;;
11962;SDS011;62678;52.130;5.584;2023-03-01T11:02:01;4.72;;;4.00;;
11962;SDS011;62678;52.130;5.584;2023-03-01T11:04:30;6.30;;;3.83;;
11962;SDS011;62678;52.130;5.584;2023-03-01T11:07:01;6.18;;;3.55;;
11962;SDS011;62678;52.130;5.584;2023-03-01T11:09:30;4.88;;;3.50;;
11962;SDS011;62678;52.130;5.584;2023-03-01T11:12:03;5.68;;;3.92;;
11962;SDS011;62678;52.130;5.584;2023-03-01T11:14:32;5.82;;;3.90;;
11962;SDS011;62678;52.130;5.584;2023-03-01T11:17:03;6.18;;;4.00;;
11962;SDS011;62678;52.130;5.584;2023-03-01T11:19:37;6.45;;;3.60;;
11962;SDS011;62678;52.130;5.584;2023-03-01T11:22:07;5.53;;;4.22;;
11962;SDS011;62678;52.130;5.584;2023-03-01T11:24:40;5.95;;;4.15;;
11962;SDS011;62678;52.130;5.584;2023-03-01T11:27:14;5.47;;;4.38;;
11962;SDS011;62678;52.130;5.584;2023-03-01T11:29:46;6.75;;;4.40;;
11962;SDS011;62678;52.130;5.584;2023-03-01T11:32:16;5.38;;;3.95;;
11962;SDS011;62678;52.130;5.584;2023-03-01T11:34:47;5.22;;;3.85;;
11962;SDS011;62678;52.130;5.584;2023-03-01T11:37:22;6.50;;;4.00;;
11962;SDS011;62678;52.130;5.584;2023-03-01T11:39:59;5.78;;;3.88;;
11962;SDS011;62678;52.130;5.584;2023-03-01T11:42:40;5.60;;;4.25;;
11962;SDS011;62678;52.130;5.584;2023-03-01T11:45:14;9.13;;;4.35;;
11962;SDS011;62678;52.130;5.584;2023-03-01T11:47:54;6.68;;;4.03;;
11962;SDS011;62678;52.130;5.584;2023-03-01T11:50:29;7.70;;;4.20;;
11962;SDS011;62678;52.130;5.584;2023-03-01T11:53:13;6.97;;;3.88;;
11962;SDS011;62678;52.130;5.584;2023-03-01T11:56:00;6.65;;;4.10;;
11962;SDS011;62678;52.130;5.584;2023-03-01T11:58:44;5.68;;;4.20;;
11962;SDS011;62678;52.130;5.584;2023-03-01T12:01:23;5.00;;;4.00;;
11962;SDS011;62678;52.130;5.584;2023-03-01T12:04:03;6.95;;;3.70;;
11962;SDS011;62678;52.130;5.584;2023-03-01T12:06:47;6.18;;;4.07;;
11962;SDS011;62678;52.130;5.584;2023-03-01T12:09:36;8.95;;;3.95;;
11962;SDS011;62678;52.130;5.584;2023-03-01T12:12:21;5.43;;;3.50;;
11962;SDS011;62678;52.130;5.584;2023-03-01T12:15:05;6.35;;;4.28;;
11962;SDS011;62678;52.130;5.584;2023-03-01T12:18:02;6.65;;;4.10;;
11962;SDS011;62678;52.130;5.584;2023-03-01T12:20:54;4.63;;;3.60;;
11962;SDS011;62678;52.130;5.584;2023-03-01T12:23:35;5.85;;;4.03;;
11962;SDS011;62678;52.130;5.584;2023-03-01T12:26:18;5.80;;;4.10;;
11962;SDS011;62678;52.130;5.584;2023-03-01T12:28:55;6.10;;;3.97;;
11962;SDS011;62678;52.130;5.584;2023-03-01T12:31:46;6.45;;;4.13;;
11962;SDS011;62678;52.130;5.584;2023-03-01T12:34:45;6.72;;;3.90;;
11962;SDS011;62678;52.130;5.584;2023-03-01T12:37:31;6.95;;;4.55;;
11962;SDS011;62678;52.130;5.584;2023-03-01T12:40:25;5.38;;;3.90;;
11962;SDS011;62678;52.130;5.584;2023-03-01T12:43:17;6.50;;;4.50;;
11962;SDS011;62678;52.130;5.584;2023-03-01T12:46:08;6.18;;;4.60;;
11962;SDS011;62678;52.130;5.584;2023-03-01T12:48:47;6.28;;;4.30;;
11962;SDS011;62678;52.130;5.584;2023-03-01T12:51:23;6.38;;;3.95;;
11962;SDS011;62678;52.130;5.584;2023-03-01T12:53:53;6.60;;;4.00;;
11962;SDS011;62678;52.130;5.584;2023-03-01T12:56:22;7.85;;;3.80;;
11962;SDS011;62678;52.130;5.584;2023-03-01T12:58:54;8.93;;;4.55;;
11962;SDS011;62678;52.130;5.584;2023-03-01T13:01:33;5.68;;;3.75;;
11962;SDS011;62678;52.130;5.584;2023-03-01T13:04:14;6.97;;;4.13;;
11962;SDS011;62678;52.130;5.584;2023-03-01T13:06:50;4.03;;;3.42;;
11962;SDS011;62678;52.130;5.584;2023-03-01T13:09:24;6.32;;;3.05;;
11962;SDS011;62678;52.130;5.584;2023-03-01T13:11:56;5.38;;;3.83;;
11962;SDS011;62678;52.130;5.584;2023-03-01T13:17:32;4.47;;;3.50;;
11962;SDS011;62678;52.130;5.584;2023-03-01T13:20:12;6.15;;;3.53;;
11962;SDS011;62678;52.130;5.584;2023-03-01T13:22:41;5.78;;;3.75;;
11962;SDS011;62678;52.130;5.584;2023-03-01T13:25:13;6.10;;;4.00;;
11962;SDS011;62678;52.130;5.584;2023-03-01T13:27:42;5.70;;;3.90;;
11962;SDS011;62678;52.130;5.584;2023-03-01T13:36:06;4.05;;;3.50;;
11962;SDS011;62678;52.130;5.584;2023-03-01T13:38:37;6.50;;;3.65;;
11962;SDS011;62678;52.130;5.584;2023-03-01T13:41:11;5.20;;;3.53;;
11962;SDS011;62678;52.130;5.584;2023-03-01T13:43:40;6.88;;;3.67;;
11962;SDS011;62678;52.130;5.584;2023-03-01T13:46:11;5.55;;;3.72;;
11962;SDS011;62678;52.130;5.584;2023-03-01T13:48:44;4.72;;;3.40;;
11962;SDS011;62678;52.130;5.584;2023-03-01T13:51:13;5.05;;;3.70;;
11962;SDS011;62678;52.130;5.584;2023-03-01T13:53:41;7.88;;;3.95;;
11962;SDS011;62678;52.130;5.584;2023-03-01T13:56:12;5.97;;;3.60;;
11962;SDS011;62678;52.130;5.584;2023-03-01T13:58:46;4.90;;;3.47;;
11962;SDS011;62678;52.130;5.584;2023-03-01T14:01:24;5.38;;;3.50;;
11962;SDS011;62678;52.130;5.584;2023-03-01T14:03:53;5.90;;;4.00;;
11962;SDS011;62678;52.130;5.584;2023-03-01T14:06:21;4.82;;;3.53;;
11962;SDS011;62678;52.130;5.584;2023-03-01T14:08:50;6.75;;;4.60;;
11962;SDS011;62678;52.130;5.584;2023-03-01T14:11:30;6.50;;;4.22;;
11962;SDS011;62678;52.130;5.584;2023-03-01T14:14:41;5.50;;;4.35;;
11962;SDS011;62678;52.130;5.584;2023-03-01T14:17:25;6.95;;;4.10;;
11962;SDS011;62678;52.130;5.584;2023-03-01T14:20:27;4.72;;;3.58;;
11962;SDS011;62678;52.130;5.584;2023-03-01T14:22:57;5.05;;;3.70;;
11962;SDS011;62678;52.130;5.584;2023-03-01T14:25:26;4.38;;;3.55;;
11962;SDS011;62678;52.130;5.584;2023-03-01T14:27:57;5.68;;;3.85;;
11962;SDS011;62678;52.130;5.584;2023-03-01T14:30:27;5.20;;;4.20;;
11962;SDS011;62678;52.130;5.584;2023-03-01T14:32:59;7.82;;;4.25;;
11962;SDS011;62678;52.130;5.584;2023-03-01T14:35:28;9.30;;;5.07;;
11962;SDS011;62678;52.130;5.584;2023-03-01T14:37:56;9.15;;;4.45;;
11962;SDS011;62678;52.130;5.584;2023-03-01T14:40:25;8.32;;;4.30;;
11962;SDS011;62678;52.130;5.584;2023-03-01T14:42:54;4.95;;;3.80;;
11962;SDS011;62678;52.130;5.584;2023-03-01T14:45:24;5.88;;;4.38;;
11962;SDS011;62678;52.130;5.584;2023-03-01T14:47:52;6.72;;;4.18;;
11962;SDS011;62678;52.130;5.584;2023-03-01T14:50:25;5.50;;;4.00;;
11962;SDS011;62678;52.130;5.584;2023-03-01T14:52:54;5.65;;;4.50;;
11962;SDS011;62678;52.130;5.584;2023-03-01T14:55:25;6.20;;;4.05;;
11962;SDS011;62678;52.130;5.584;2023-03-01T14:57:57;5.20;;;4.03;;
11962;SDS011;62678;52.130;5.584;2023-03-01T15:00:25;6.78;;;3.97;;
11962;SDS011;62678;52.130;5.584;2023-03-01T15:02:54;7.35;;;3.95;;